Terminal Aerodrome Forecast
Issued by NWS

Home | Current Version | Previous Version | Text Only | Print | Product List | Glossary On
Versions: 1 2 3 4 5 6 7 8 9 10 11 12 13 14 15 16 17 18 19 20 21 22 23
000
FTAK31 PANC 281731
TAFAEN
TAF
PAEN 281731Z 2818/0118 03006KT P6SM OVC035
     FM282100 02008KT 5SM -SN BR OVC030
     FM010000 01007KT P6SM VCSH SCT025 BKN040
     FM010200 03005KT P6SM FEW050
     FM011100 03005KT 1SM BR BKN005=

USA.gov is the U.S. government's official web portal to all federal, state and local government web resources and services.